sensor_id;sensor_type;location;lat;lon;timestamp;pressure;altitude;pressure_sealevel;temperature;humidity
85511;BME280;75921;51.616;11.880;2024-03-22T00:00:29;100548.97;;;7.75;75.32
85511;BME280;75921;51.616;11.880;2024-03-22T00:02:55;100554.66;;;7.72;74.88
85511;BME280;75921;51.616;11.880;2024-03-22T00:05:20;100541.34;;;7.70;75.20
85511;BME280;75921;51.616;11.880;2024-03-22T00:07:47;100533.44;;;7.69;75.00
85511;BME280;75921;51.616;11.880;2024-03-22T00:10:12;100543.34;;;7.68;75.24
85511;BME280;75921;51.616;11.880;2024-03-22T00:12:38;100536.44;;;7.66;75.25
85511;BME280;75921;51.616;11.880;2024-03-22T00:15:04;100534.88;;;7.63;75.04
85511;BME280;75921;51.616;11.880;2024-03-22T00:17:29;100528.97;;;7.60;75.20
85511;BME280;75921;51.616;11.880;2024-03-22T00:19:56;100531.66;;;7.60;75.04
85511;BME280;75921;51.616;11.880;2024-03-22T00:22:21;100527.13;;;7.60;75.11
85511;BME280;75921;51.616;11.880;2024-03-22T00:24:46;100516.84;;;7.56;75.19
85511;BME280;75921;51.616;11.880;2024-03-22T00:27:11;100517.69;;;7.56;75.35
85511;BME280;75921;51.616;11.880;2024-03-22T00:29:37;100514.06;;;7.48;75.21
85511;BME280;75921;51.616;11.880;2024-03-22T00:32:03;100519.78;;;7.53;75.35
85511;BME280;75921;51.616;11.880;2024-03-22T00:34:28;100508.38;;;7.51;75.07
85511;BME280;75921;51.616;11.880;2024-03-22T00:36:54;100511.91;;;7.51;75.13
85511;BME280;75921;51.616;11.880;2024-03-22T00:39:19;100500.44;;;7.49;75.13
85511;BME280;75921;51.616;11.880;2024-03-22T00:41:44;100502.47;;;7.47;75.12
85511;BME280;75921;51.616;11.880;2024-03-22T00:44:09;100504.13;;;7.48;75.12
85511;BME280;75921;51.616;11.880;2024-03-22T00:46:35;100498.91;;;7.47;75.38
85511;BME280;75921;51.616;11.880;2024-03-22T00:49:01;100501.03;;;7.43;75.39
85511;BME280;75921;51.616;11.880;2024-03-22T00:51:26;100495.00;;;7.41;75.06
85511;BME280;75921;51.616;11.880;2024-03-22T00:53:51;100489.22;;;7.36;75.45
85511;BME280;75921;51.616;11.880;2024-03-22T00:56:17;100479.91;;;7.30;75.94
85511;BME280;75921;51.616;11.880;2024-03-22T00:58:42;100487.59;;;7.25;75.88
85511;BME280;75921;51.616;11.880;2024-03-22T01:01:07;100482.03;;;7.00;76.85
85511;BME280;75921;51.616;11.880;2024-03-22T01:03:32;100482.41;;;6.87;77.34
85511;BME280;75921;51.616;11.880;2024-03-22T01:05:58;100473.84;;;7.01;77.35
85511;BME280;75921;51.616;11.880;2024-03-22T01:08:23;100467.78;;;6.99;77.10
85511;BME280;75921;51.616;11.880;2024-03-22T01:10:48;100458.72;;;7.00;76.79
85511;BME280;75921;51.616;11.880;2024-03-22T01:13:13;100461.13;;;7.03;76.45
85511;BME280;75921;51.616;11.880;2024-03-22T01:15:39;100463.25;;;7.00;76.81
85511;BME280;75921;51.616;11.880;2024-03-22T01:18:04;100455.31;;;7.08;76.41
85511;BME280;75921;51.616;11.880;2024-03-22T01:20:29;100446.09;;;7.10;75.79
85511;BME280;75921;51.616;11.880;2024-03-22T01:22:55;100444.78;;;7.14;76.11
85511;BME280;75921;51.616;11.880;2024-03-22T01:25:20;100443.81;;;7.15;76.42
85511;BME280;75921;51.616;11.880;2024-03-22T01:27:45;100440.44;;;7.13;75.83
85511;BME280;75921;51.616;11.880;2024-03-22T01:30:11;100437.59;;;7.15;75.50
85511;BME280;75921;51.616;11.880;2024-03-22T01:32:36;100434.66;;;7.08;75.75
85511;BME280;75921;51.616;11.880;2024-03-22T01:35:02;100434.28;;;7.03;75.98
85511;BME280;75921;51.616;11.880;2024-03-22T01:37:27;100428.09;;;6.93;76.54
85511;BME280;75921;51.616;11.880;2024-03-22T01:39:52;100431.06;;;6.90;76.78
85511;BME280;75921;51.616;11.880;2024-03-22T01:42:17;100428.78;;;6.95;76.02
85511;BME280;75921;51.616;11.880;2024-03-22T01:44:43;100431.69;;;6.84;76.55
85511;BME280;75921;51.616;11.880;2024-03-22T01:47:08;100425.97;;;6.69;77.10
85511;BME280;75921;51.616;11.880;2024-03-22T01:49:34;100416.88;;;6.70;77.01
85511;BME280;75921;51.616;11.880;2024-03-22T01:51:59;100420.81;;;6.76;77.18
85511;BME280;75921;51.616;11.880;2024-03-22T01:54:25;100425.03;;;6.88;76.58
85511;BME280;75921;51.616;11.880;2024-03-22T01:56:50;100423.00;;;6.90;76.07
85511;BME280;75921;51.616;11.880;2024-03-22T01:59:15;100416.66;;;6.91;76.08
85511;BME280;75921;51.616;11.880;2024-03-22T02:01:42;100416.25;;;6.86;76.43
85511;BME280;75921;51.616;11.880;2024-03-22T02:04:07;100414.97;;;6.90;75.98
85511;BME280;75921;51.616;11.880;2024-03-22T02:06:33;100407.06;;;6.88;76.02
85511;BME280;75921;51.616;11.880;2024-03-22T02:08:58;100408.06;;;6.87;76.01
85511;BME280;75921;51.616;11.880;2024-03-22T02:11:25;100402.56;;;6.89;75.73
85511;BME280;75921;51.616;11.880;2024-03-22T02:13:51;100399.88;;;6.79;76.06
85511;BME280;75921;51.616;11.880;2024-03-22T02:16:16;100405.88;;;6.73;76.26
85511;BME280;75921;51.616;11.880;2024-03-22T02:18:41;100401.03;;;6.77;76.62
85511;BME280;75921;51.616;11.880;2024-03-22T02:21:07;100395.38;;;6.52;76.78
85511;BME280;75921;51.616;11.880;2024-03-22T02:23:37;100396.75;;;6.20;78.23
85511;BME280;75921;51.616;11.880;2024-03-22T02:26:03;100390.94;;;6.24;78.51
85511;BME280;75921;51.616;11.880;2024-03-22T02:28:30;100387.00;;;6.19;78.78
85511;BME280;75921;51.616;11.880;2024-03-22T02:30:55;100385.84;;;6.21;78.87
85511;BME280;75921;51.616;11.880;2024-03-22T02:33:20;100386.44;;;6.25;79.16
85511;BME280;75921;51.616;11.880;2024-03-22T02:35:46;100380.53;;;6.12;79.79
85511;BME280;75921;51.616;11.880;2024-03-22T02:38:12;100379.69;;;6.11;79.14
85511;BME280;75921;51.616;11.880;2024-03-22T02:40:37;100362.50;;;6.04;80.21
85511;BME280;75921;51.616;11.880;2024-03-22T02:43:02;100367.38;;;6.18;79.11
85511;BME280;75921;51.616;11.880;2024-03-22T02:45:27;100347.31;;;6.22;78.38
85511;BME280;75921;51.616;11.880;2024-03-22T02:47:53;100353.22;;;6.26;79.65
85511;BME280;75921;51.616;11.880;2024-03-22T02:50:18;100350.69;;;6.34;78.98
85511;BME280;75921;51.616;11.880;2024-03-22T02:52:43;100346.03;;;6.26;78.90
85511;BME280;75921;51.616;11.880;2024-03-22T02:55:08;100337.31;;;6.24;78.90
85511;BME280;75921;51.616;11.880;2024-03-22T02:57:34;100339.41;;;6.30;79.02
85511;BME280;75921;51.616;11.880;2024-03-22T03:00:02;100339.06;;;6.43;78.19
85511;BME280;75921;51.616;11.880;2024-03-22T03:02:28;100334.59;;;6.34;78.99
85511;BME280;75921;51.616;11.880;2024-03-22T03:04:53;100329.09;;;6.26;78.98
85511;BME280;75921;51.616;11.880;2024-03-22T03:07:19;100328.28;;;6.25;78.52
85511;BME280;75921;51.616;11.880;2024-03-22T03:09:44;100322.75;;;6.27;79.14
85511;BME280;75921;51.616;11.880;2024-03-22T03:12:09;100317.53;;;6.25;78.87
85511;BME280;75921;51.616;11.880;2024-03-22T03:14:34;100324.00;;;6.32;78.77
85511;BME280;75921;51.616;11.880;2024-03-22T03:17:00;100317.63;;;6.33;78.39
85511;BME280;75921;51.616;11.880;2024-03-22T03:19:25;100320.94;;;6.18;79.97
85511;BME280;75921;51.616;11.880;2024-03-22T03:21:50;100309.19;;;6.28;79.06
85511;BME280;75921;51.616;11.880;2024-03-22T03:24:15;100318.50;;;6.34;79.03
85511;BME280;75921;51.616;11.880;2024-03-22T03:26:41;100307.34;;;6.29;79.00
85511;BME280;75921;51.616;11.880;2024-03-22T03:29:06;100306.38;;;6.30;78.76
85511;BME280;75921;51.616;11.880;2024-03-22T03:31:31;100309.50;;;6.25;78.98
85511;BME280;75921;51.616;11.880;2024-03-22T03:33:57;100306.69;;;6.17;79.56
85511;BME280;75921;51.616;11.880;2024-03-22T03:36:22;100309.03;;;5.93;80.51
85511;BME280;75921;51.616;11.880;2024-03-22T03:38:47;100306.09;;;5.96;80.99
85511;BME280;75921;51.616;11.880;2024-03-22T03:41:12;100289.69;;;6.26;78.72
85511;BME280;75921;51.616;11.880;2024-03-22T03:43:38;100277.59;;;6.22;79.04
85511;BME280;75921;51.616;11.880;2024-03-22T03:46:03;100280.00;;;6.25;79.20
85511;BME280;75921;51.616;11.880;2024-03-22T03:48:28;100270.94;;;6.26;79.16
85511;BME280;75921;51.616;11.880;2024-03-22T03:50:54;100272.34;;;6.30;78.29
85511;BME280;75921;51.616;11.880;2024-03-22T03:53:21;100273.91;;;6.23;79.24
85511;BME280;75921;51.616;11.880;2024-03-22T03:55:46;100272.00;;;6.16;79.89
85511;BME280;75921;51.616;11.880;2024-03-22T03:58:11;100274.00;;;6.04;80.56
85511;BME280;75921;51.616;11.880;2024-03-22T04:00:37;100265.50;;;6.08;80.52
85511;BME280;75921;51.616;11.880;2024-03-22T04:03:02;100264.25;;;6.03;80.28
85511;BME280;75921;51.616;11.880;2024-03-22T04:05:27;100249.06;;;6.21;79.50
85511;BME280;75921;51.616;11.880;2024-03-22T04:07:53;100249.38;;;6.18;80.29
85511;BME280;75921;51.616;11.880;2024-03-22T04:10:18;100246.03;;;6.06;80.49
85511;BME280;75921;51.616;11.880;2024-03-22T04:12:44;100255.72;;;5.90;81.49
85511;BME280;75921;51.616;11.880;2024-03-22T04:15:10;100241.44;;;5.99;80.93
85511;BME280;75921;51.616;11.880;2024-03-22T04:17:35;100232.22;;;6.01;80.74
85511;BME280;75921;51.616;11.880;2024-03-22T04:20:01;100228.91;;;6.17;79.76
85511;BME280;75921;51.616;11.880;2024-03-22T04:22:27;100230.91;;;6.15;79.79
85511;BME280;75921;51.616;11.880;2024-03-22T04:24:52;100222.56;;;6.18;79.12
85511;BME280;75921;51.616;11.880;2024-03-22T04:27:18;100232.38;;;6.27;79.28
85511;BME280;75921;51.616;11.880;2024-03-22T04:29:47;100233.38;;;6.26;79.11
85511;BME280;75921;51.616;11.880;2024-03-22T04:32:12;100222.13;;;6.40;77.86
85511;BME280;75921;51.616;11.880;2024-03-22T04:34:41;100211.13;;;6.43;77.90
85511;BME280;75921;51.616;11.880;2024-03-22T04:37:07;100208.72;;;6.40;78.16
85511;BME280;75921;51.616;11.880;2024-03-22T04:39:32;100207.50;;;6.35;78.03
85511;BME280;75921;51.616;11.880;2024-03-22T04:41:57;100197.00;;;6.41;78.02
85511;BME280;75921;51.616;11.880;2024-03-22T04:44:22;100201.91;;;6.46;78.06
85511;BME280;75921;51.616;11.880;2024-03-22T04:46:48;100202.22;;;6.43;78.01
85511;BME280;75921;51.616;11.880;2024-03-22T04:49:13;100193.66;;;6.39;77.89
85511;BME280;75921;51.616;11.880;2024-03-22T04:51:38;100200.38;;;6.43;77.40
85511;BME280;75921;51.616;11.880;2024-03-22T04:54:04;100189.66;;;6.43;77.83
85511;BME280;75921;51.616;11.880;2024-03-22T04:56:29;100190.09;;;6.39;78.19
85511;BME280;75921;51.616;11.880;2024-03-22T04:58:54;100190.00;;;6.31;79.05
85511;BME280;75921;51.616;11.880;2024-03-22T05:01:20;100190.63;;;6.25;78.94
85511;BME280;75921;51.616;11.880;2024-03-22T05:03:45;100194.75;;;6.19;79.74
85511;BME280;75921;51.616;11.880;2024-03-22T05:06:11;100190.75;;;6.05;81.11
85511;BME280;75921;51.616;11.880;2024-03-22T05:08:36;100187.22;;;6.05;81.08
85511;BME280;75921;51.616;11.880;2024-03-22T05:11:01;100191.03;;;6.02;81.30
85511;BME280;75921;51.616;11.880;2024-03-22T05:13:26;100193.16;;;5.99;81.48
85511;BME280;75921;51.616;11.880;2024-03-22T05:15:52;100186.13;;;5.98;81.41
85511;BME280;75921;51.616;11.880;2024-03-22T05:18:17;100188.34;;;6.02;81.49
85511;BME280;75921;51.616;11.880;2024-03-22T05:20:42;100184.59;;;5.95;82.33
85511;BME280;75921;51.616;11.880;2024-03-22T05:23:07;100198.16;;;5.84;83.18
85511;BME280;75921;51.616;11.880;2024-03-22T05:25:33;100190.09;;;5.94;82.25
85511;BME280;75921;51.616;11.880;2024-03-22T05:27:58;100187.72;;;5.91;82.30
85511;BME280;75921;51.616;11.880;2024-03-22T05:30:23;100193.91;;;5.91;82.26
85511;BME280;75921;51.616;11.880;2024-03-22T05:32:48;100185.25;;;5.97;81.66
85511;BME280;75921;51.616;11.880;2024-03-22T05:35:15;100180.34;;;5.93;82.76
85511;BME280;75921;51.616;11.880;2024-03-22T05:37:40;100176.94;;;6.00;82.11
85511;BME280;75921;51.616;11.880;2024-03-22T05:40:06;100167.06;;;6.01;81.59
85511;BME280;75921;51.616;11.880;2024-03-22T05:42:31;100165.78;;;6.05;81.44
85511;BME280;75921;51.616;11.880;2024-03-22T05:44:57;100164.06;;;6.04;82.39
85511;BME280;75921;51.616;11.880;2024-03-22T05:47:22;100171.97;;;6.05;82.11
85511;BME280;75921;51.616;11.880;2024-03-22T05:49:47;100166.03;;;6.02;82.85
85511;BME280;75921;51.616;11.880;2024-03-22T05:52:12;100160.09;;;6.08;82.19
85511;BME280;75921;51.616;11.880;2024-03-22T05:54:38;100169.22;;;6.15;82.44
85511;BME280;75921;51.616;11.880;2024-03-22T05:57:03;100149.16;;;6.19;80.69
85511;BME280;75921;51.616;11.880;2024-03-22T05:59:30;100156.75;;;6.24;80.92
85511;BME280;75921;51.616;11.880;2024-03-22T06:01:55;100155.91;;;6.23;81.08
85511;BME280;75921;51.616;11.880;2024-03-22T06:04:20;100146.03;;;6.24;81.29
85511;BME280;75921;51.616;11.880;2024-03-22T06:06:46;100139.34;;;6.28;80.74
85511;BME280;75921;51.616;11.880;2024-03-22T06:09:11;100145.63;;;6.36;80.19
85511;BME280;75921;51.616;11.880;2024-03-22T06:11:38;100134.63;;;6.39;79.39
85511;BME280;75921;51.616;11.880;2024-03-22T06:14:03;100124.41;;;6.43;78.74
85511;BME280;75921;51.616;11.880;2024-03-22T06:16:29;100130.63;;;6.43;79.44
85511;BME280;75921;51.616;11.880;2024-03-22T06:18:54;100124.94;;;6.46;78.81
85511;BME280;75921;51.616;11.880;2024-03-22T06:21:19;100134.84;;;6.46;79.49
85511;BME280;75921;51.616;11.880;2024-03-22T06:23:49;100136.00;;;6.43;80.00
85511;BME280;75921;51.616;11.880;2024-03-22T06:26:14;100118.91;;;6.44;80.27
85511;BME280;75921;51.616;11.880;2024-03-22T06:28:40;100116.03;;;6.46;80.62
85511;BME280;75921;51.616;11.880;2024-03-22T06:31:05;100105.31;;;6.46;80.41
85511;BME280;75921;51.616;11.880;2024-03-22T06:33:30;100102.50;;;6.47;81.19
85511;BME280;75921;51.616;11.880;2024-03-22T06:35:55;100102.16;;;6.50;81.54
85511;BME280;75921;51.616;11.880;2024-03-22T06:38:21;100103.19;;;6.49;82.12
85511;BME280;75921;51.616;11.880;2024-03-22T06:40:46;100115.44;;;6.52;81.64
85511;BME280;75921;51.616;11.880;2024-03-22T06:43:11;100104.25;;;6.57;81.32
85511;BME280;75921;51.616;11.880;2024-03-22T06:45:37;100099.19;;;6.53;81.65
85511;BME280;75921;51.616;11.880;2024-03-22T06:48:02;100095.81;;;6.51;82.12
85511;BME280;75921;51.616;11.880;2024-03-22T06:50:27;100104.09;;;6.58;81.92
85511;BME280;75921;51.616;11.880;2024-03-22T06:52:53;100103.25;;;6.58;82.07
85511;BME280;75921;51.616;11.880;2024-03-22T06:55:19;100098.25;;;6.63;81.52
85511;BME280;75921;51.616;11.880;2024-03-22T06:57:46;100092.03;;;6.62;81.10
85511;BME280;75921;51.616;11.880;2024-03-22T07:00:12;100096.81;;;6.68;80.97
85511;BME280;75921;51.616;11.880;2024-03-22T07:02:38;100096.63;;;6.70;81.92
85511;BME280;75921;51.616;11.880;2024-03-22T07:05:04;100089.28;;;6.72;82.46
85511;BME280;75921;51.616;11.880;2024-03-22T07:07:29;100079.84;;;6.68;81.71
85511;BME280;75921;51.616;11.880;2024-03-22T07:09:54;100095.84;;;6.77;82.67
85511;BME280;75921;51.616;11.880;2024-03-22T07:12:19;100102.59;;;6.81;81.69
85511;BME280;75921;51.616;11.880;2024-03-22T07:14:45;100101.97;;;6.87;82.52
85511;BME280;75921;51.616;11.880;2024-03-22T07:17:10;100096.47;;;6.89;81.27
85511;BME280;75921;51.616;11.880;2024-03-22T07:19:35;100096.97;;;6.92;82.49
85511;BME280;75921;51.616;11.880;2024-03-22T07:22:01;100098.66;;;6.93;81.99
85511;BME280;75921;51.616;11.880;2024-03-22T07:24:26;100093.13;;;6.95;82.12
85511;BME280;75921;51.616;11.880;2024-03-22T07:26:51;100096.19;;;7.00;82.05
85511;BME280;75921;51.616;11.880;2024-03-22T07:29:17;100096.19;;;7.00;81.44
85511;BME280;75921;51.616;11.880;2024-03-22T07:31:42;100089.13;;;6.99;80.98
85511;BME280;75921;51.616;11.880;2024-03-22T07:34:07;100097.25;;;7.07;82.00
85511;BME280;75921;51.616;11.880;2024-03-22T07:36:37;100101.81;;;7.15;81.76
85511;BME280;75921;51.616;11.880;2024-03-22T07:39:02;100098.66;;;7.19;81.87
85511;BME280;75921;51.616;11.880;2024-03-22T07:41:31;100099.34;;;7.21;80.58
85511;BME280;75921;51.616;11.880;2024-03-22T07:43:57;100104.44;;;7.32;81.06
85511;BME280;75921;51.616;11.880;2024-03-22T07:46:22;100094.69;;;7.31;80.82
85511;BME280;75921;51.616;11.880;2024-03-22T07:48:48;100095.06;;;7.36;81.44
85511;BME280;75921;51.616;11.880;2024-03-22T07:51:14;100096.44;;;7.49;81.19
85511;BME280;75921;51.616;11.880;2024-03-22T07:53:39;100105.59;;;7.64;81.03
85511;BME280;75921;51.616;11.880;2024-03-22T07:56:04;100090.78;;;7.60;81.52
85511;BME280;75921;51.616;11.880;2024-03-22T07:58:29;100098.03;;;7.67;81.98
85511;BME280;75921;51.616;11.880;2024-03-22T08:00:55;100085.31;;;7.77;81.76
85511;BME280;75921;51.616;11.880;2024-03-22T08:03:20;100076.44;;;7.85;81.12
85511;BME280;75921;51.616;11.880;2024-03-22T08:05:46;100077.78;;;7.81;81.19
85511;BME280;75921;51.616;11.880;2024-03-22T08:08:11;100082.84;;;7.92;80.89
85511;BME280;75921;51.616;11.880;2024-03-22T08:10:36;100075.09;;;7.81;80.45
85511;BME280;75921;51.616;11.880;2024-03-22T08:13:01;100066.69;;;7.84;79.97
85511;BME280;75921;51.616;11.880;2024-03-22T08:15:27;100062.31;;;7.83;80.62
85511;BME280;75921;51.616;11.880;2024-03-22T08:17:52;100065.00;;;7.83;80.67
85511;BME280;75921;51.616;11.880;2024-03-22T08:20:17;100064.63;;;7.78;81.10
85511;BME280;75921;51.616;11.880;2024-03-22T08:22:43;100055.06;;;7.75;80.49
85511;BME280;75921;51.616;11.880;2024-03-22T08:25:08;100050.34;;;7.77;82.00
85511;BME280;75921;51.616;11.880;2024-03-22T08:27:34;100053.75;;;7.88;81.58
85511;BME280;75921;51.616;11.880;2024-03-22T08:29:59;100048.72;;;7.93;81.16
85511;BME280;75921;51.616;11.880;2024-03-22T08:32:24;100038.97;;;7.92;81.44
85511;BME280;75921;51.616;11.880;2024-03-22T08:34:50;100038.66;;;7.95;81.21
85511;BME280;75921;51.616;11.880;2024-03-22T08:37:15;100038.84;;;8.01;81.01
85511;BME280;75921;51.616;11.880;2024-03-22T08:39:40;100036.16;;;8.09;80.64
85511;BME280;75921;51.616;11.880;2024-03-22T08:42:06;100029.41;;;8.13;81.20
85511;BME280;75921;51.616;11.880;2024-03-22T08:44:31;100031.09;;;8.22;81.10
85511;BME280;75921;51.616;11.880;2024-03-22T08:46:56;100016.88;;;8.30;79.85
85511;BME280;75921;51.616;11.880;2024-03-22T08:49:23;100028.56;;;8.21;79.31
85511;BME280;75921;51.616;11.880;2024-03-22T08:51:48;100025.56;;;8.24;80.70
85511;BME280;75921;51.616;11.880;2024-03-22T08:54:14;100022.75;;;8.34;80.62
85511;BME280;75921;51.616;11.880;2024-03-22T08:56:39;100014.16;;;8.38;80.62
85511;BME280;75921;51.616;11.880;2024-03-22T08:59:04;100002.72;;;8.36;79.93
85511;BME280;75921;51.616;11.880;2024-03-22T09:01:30;100000.38;;;8.33;80.45
85511;BME280;75921;51.616;11.880;2024-03-22T09:03:56;100007.75;;;8.47;79.83
85511;BME280;75921;51.616;11.880;2024-03-22T09:06:21;100013.31;;;8.46;80.24
85511;BME280;75921;51.616;11.880;2024-03-22T09:08:46;100014.34;;;8.45;79.65
85511;BME280;75921;51.616;11.880;2024-03-22T09:11:12;100009.59;;;8.47;79.62
85511;BME280;75921;51.616;11.880;2024-03-22T09:13:37;100010.28;;;8.49;79.96
85511;BME280;75921;51.616;11.880;2024-03-22T09:16:03;100013.81;;;8.57;80.64
85511;BME280;75921;51.616;11.880;2024-03-22T09:18:28;99999.84;;;8.62;79.57
85511;BME280;75921;51.616;11.880;2024-03-22T09:20:54;99998.66;;;8.64;79.77
85511;BME280;75921;51.616;11.880;2024-03-22T09:23:19;99987.91;;;8.64;80.65
85511;BME280;75921;51.616;11.880;2024-03-22T09:25:46;99989.06;;;8.62;80.38
85511;BME280;75921;51.616;11.880;2024-03-22T09:28:12;99990.41;;;8.66;80.08
85511;BME280;75921;51.616;11.880;2024-03-22T09:30:38;99987.38;;;8.69;79.73
85511;BME280;75921;51.616;11.880;2024-03-22T09:33:04;99981.16;;;8.60;79.90
85511;BME280;75921;51.616;11.880;2024-03-22T09:35:29;99983.84;;;8.60;80.11
85511;BME280;75921;51.616;11.880;2024-03-22T09:37:56;99979.31;;;8.69;79.71
85511;BME280;75921;51.616;11.880;2024-03-22T09:40:21;99974.94;;;8.68;79.32
85511;BME280;75921;51.616;11.880;2024-03-22T09:42:48;99970.19;;;8.78;79.63
85511;BME280;75921;51.616;11.880;2024-03-22T09:45:15;99970.16;;;8.86;79.56
85511;BME280;75921;51.616;11.880;2024-03-22T09:47:44;99981.22;;;8.99;79.38
85511;BME280;75921;51.616;11.880;2024-03-22T09:50:10;99974.47;;;9.11;78.79
85511;BME280;75921;51.616;11.880;2024-03-22T09:52:38;99965.16;;;9.22;78.82
85511;BME280;75921;51.616;11.880;2024-03-22T09:55:07;99959.66;;;9.38;78.30
85511;BME280;75921;51.616;11.880;2024-03-22T09:57:35;99948.03;;;9.46;78.40
85511;BME280;75921;51.616;11.880;2024-03-22T10:00:02;99950.84;;;9.52;79.05
85511;BME280;75921;51.616;11.880;2024-03-22T10:02:28;99939.72;;;9.78;76.88
85511;BME280;75921;51.616;11.880;2024-03-22T10:04:53;99938.53;;;9.81;76.52
85511;BME280;75921;51.616;11.880;2024-03-22T10:07:18;99930.91;;;9.84;77.38
85511;BME280;75921;51.616;11.880;2024-03-22T10:09:44;99932.28;;;9.80;77.01
85511;BME280;75921;51.616;11.880;2024-03-22T10:12:09;99927.28;;;9.77;77.14
85511;BME280;75921;51.616;11.880;2024-03-22T10:14:34;99936.97;;;9.86;78.00
85511;BME280;75921;51.616;11.880;2024-03-22T10:17:02;99935.41;;;9.92;76.27
85511;BME280;75921;51.616;11.880;2024-03-22T10:19:27;99943.97;;;9.95;76.27
85511;BME280;75921;51.616;11.880;2024-03-22T10:22:00;99949.69;;;10.00;76.31
85511;BME280;75921;51.616;11.880;2024-03-22T10:24:25;99940.06;;;9.98;76.72
85511;BME280;75921;51.616;11.880;2024-03-22T10:26:51;99931.81;;;9.99;76.30
85511;BME280;75921;51.616;11.880;2024-03-22T10:29:16;99934.88;;;10.19;76.05
85511;BME280;75921;51.616;11.880;2024-03-22T10:31:41;99932.75;;;10.29;75.96
85511;BME280;75921;51.616;11.880;2024-03-22T10:34:07;99926.13;;;10.32;75.20
85511;BME280;75921;51.616;11.880;2024-03-22T10:36:34;99924.97;;;10.34;75.23
85511;BME280;75921;51.616;11.880;2024-03-22T10:39:00;99917.31;;;10.38;74.59
85511;BME280;75921;51.616;11.880;2024-03-22T10:41:26;99911.09;;;10.52;74.67
85511;BME280;75921;51.616;11.880;2024-03-22T10:43:52;99921.53;;;10.55;75.44
85511;BME280;75921;51.616;11.880;2024-03-22T10:46:20;99905.06;;;10.65;75.60
85511;BME280;75921;51.616;11.880;2024-03-22T10:48:46;99909.34;;;10.74;75.70
85511;BME280;75921;51.616;11.880;2024-03-22T10:51:11;99898.88;;;10.85;74.54
85511;BME280;75921;51.616;11.880;2024-03-22T10:53:38;99894.16;;;10.88;74.08
85511;BME280;75921;51.616;11.880;2024-03-22T10:56:04;99892.28;;;10.88;74.36
85511;BME280;75921;51.616;11.880;2024-03-22T10:58:31;99884.09;;;10.81;75.10
85511;BME280;75921;51.616;11.880;2024-03-22T11:00:56;99876.91;;;11.03;73.79
85511;BME280;75921;51.616;11.880;2024-03-22T11:03:24;99866.81;;;11.12;73.22
85511;BME280;75921;51.616;11.880;2024-03-22T11:05:56;99881.31;;;11.25;72.32
85511;BME280;75921;51.616;11.880;2024-03-22T11:08:28;99871.78;;;11.29;70.66
85511;BME280;75921;51.616;11.880;2024-03-22T11:10:54;99872.38;;;11.25;70.76
85511;BME280;75921;51.616;11.880;2024-03-22T11:13:19;99872.94;;;11.20;71.28
85511;BME280;75921;51.616;11.880;2024-03-22T11:15:47;99860.06;;;11.22;70.62
85511;BME280;75921;51.616;11.880;2024-03-22T11:18:12;99860.53;;;11.26;70.87
85511;BME280;75921;51.616;11.880;2024-03-22T11:20:38;99858.09;;;11.31;70.44
85511;BME280;75921;51.616;11.880;2024-03-22T11:23:06;99835.94;;;11.21;71.96
85511;BME280;75921;51.616;11.880;2024-03-22T11:25:32;99834.09;;;11.43;70.67
85511;BME280;75921;51.616;11.880;2024-03-22T11:27:58;99829.38;;;11.30;70.86
85511;BME280;75921;51.616;11.880;2024-03-22T11:30:32;99828.59;;;11.36;71.80
85511;BME280;75921;51.616;11.880;2024-03-22T11:32:57;99827.72;;;11.50;70.25
85511;BME280;75921;51.616;11.880;2024-03-22T11:35:22;99822.94;;;11.52;70.28
85511;BME280;75921;51.616;11.880;2024-03-22T11:37:50;99822.16;;;11.58;69.92
85511;BME280;75921;51.616;11.880;2024-03-22T11:40:15;99822.16;;;11.58;69.57
85511;BME280;75921;51.616;11.880;2024-03-22T11:42:44;99814.19;;;11.50;69.62
85511;BME280;75921;51.616;11.880;2024-03-22T11:45:11;99820.09;;;11.39;71.19
85511;BME280;75921;51.616;11.880;2024-03-22T11:47:38;99808.25;;;11.40;70.26
85511;BME280;75921;51.616;11.880;2024-03-22T11:50:03;99811.13;;;11.39;70.71
85511;BME280;75921;51.616;11.880;2024-03-22T11:52:30;99799.69;;;11.37;71.09
85511;BME280;75921;51.616;11.880;2024-03-22T11:54:56;99800.28;;;11.32;71.97
85511;BME280;75921;51.616;11.880;2024-03-22T11:57:22;99798.69;;;11.38;71.41
85511;BME280;75921;51.616;11.880;2024-03-22T11:59:48;99794.91;;;11.39;71.22
85511;BME280;75921;51.616;11.880;2024-03-22T12:02:13;99798.72;;;11.44;71.51
85511;BME280;75921;51.616;11.880;2024-03-22T12:04:42;99794.56;;;11.42;72.18
85511;BME280;75921;51.616;11.880;2024-03-22T12:07:10;99789.59;;;11.45;72.12
85511;BME280;75921;51.616;11.880;2024-03-22T12:09:36;99778.75;;;11.45;72.33
85511;BME280;75921;51.616;11.880;2024-03-22T12:12:01;99781.66;;;11.44;71.99
85511;BME280;75921;51.616;11.880;2024-03-22T12:14:26;99777.22;;;11.36;72.59
85511;BME280;75921;51.616;11.880;2024-03-22T12:16:52;99773.16;;;11.47;72.49
85511;BME280;75921;51.616;11.880;2024-03-22T12:19:17;99766.16;;;11.52;72.40
85511;BME280;75921;51.616;11.880;2024-03-22T12:21:42;99756.88;;;11.40;73.99
85511;BME280;75921;51.616;11.880;2024-03-22T12:24:07;99762.53;;;11.45;72.76
85511;BME280;75921;51.616;11.880;2024-03-22T12:26:33;99753.84;;;11.50;73.04
85511;BME280;75921;51.616;11.880;2024-03-22T12:28:58;99745.53;;;11.51;73.21
85511;BME280;75921;51.616;11.880;2024-03-22T12:31:23;99747.81;;;11.48;72.86
85511;BME280;75921;51.616;11.880;2024-03-22T12:33:49;99738.63;;;11.49;73.43
85511;BME280;75921;51.616;11.880;2024-03-22T12:36:14;99733.94;;;11.57;73.37
85511;BME280;75921;51.616;11.880;2024-03-22T12:38:39;99720.59;;;11.56;73.39
85511;BME280;75921;51.616;11.880;2024-03-22T12:41:04;99724.53;;;11.53;73.96